Terminal Aerodrome Forecast
Issued by NWS

Home | Current Version | Previous Version | Text Only | Print | Product List | Glossary On
Versions: 1 2 3 4 5 6 7 8 9 10 11 12 13 14 15
000
FTUS43 KGRB 150500
TAFCWA
TAF
KCWA 150530Z 1506/1606 24004KT P6SM SCT050 BKN100
     FM150700 30005KT P6SM VCSH BKN050 BKN090
      TEMPO 1510/1514 5SM -SHRA BKN040
     FM151700 30006KT P6SM SCT040 BKN090
     FM152100 31007KT P6SM SCT070
     FM152300 31005KT P6SM SKC
      AMD LTD TO CLD VIS AND WIND TIL 151200=

USA.gov is the U.S. government's official web portal to all federal, state and local government web resources and services.